sensor_id;sensor_type;location;lat;lon;timestamp;P1;durP1;ratioP1;P2;durP2;ratioP2
41629;SDS011;27322;49.488;8.480;2023-03-18T00:01:57;10.45;;;6.25;;
41629;SDS011;27322;49.488;8.480;2023-03-18T00:04:23;11.75;;;6.15;;
41629;SDS011;27322;49.488;8.480;2023-03-18T00:06:49;10.63;;;6.05;;
41629;SDS011;27322;49.488;8.480;2023-03-18T00:09:15;10.82;;;5.65;;
41629;SDS011;27322;49.488;8.480;2023-03-18T00:11:41;10.55;;;5.68;;
41629;SDS011;27322;49.488;8.480;2023-03-18T00:14:07;10.88;;;5.97;;
41629;SDS011;27322;49.488;8.480;2023-03-18T00:16:34;10.77;;;6.45;;
41629;SDS011;27322;49.488;8.480;2023-03-18T00:19:00;9.90;;;5.95;;
41629;SDS011;27322;49.488;8.480;2023-03-18T00:21:30;10.43;;;5.53;;
41629;SDS011;27322;49.488;8.480;2023-03-18T00:23:56;10.55;;;5.60;;
41629;SDS011;27322;49.488;8.480;2023-03-18T00:26:23;11.63;;;6.22;;
41629;SDS011;27322;49.488;8.480;2023-03-18T00:28:50;11.32;;;5.97;;
41629;SDS011;27322;49.488;8.480;2023-03-18T00:31:16;10.18;;;6.15;;
41629;SDS011;27322;49.488;8.480;2023-03-18T00:33:44;10.00;;;5.72;;
41629;SDS011;27322;49.488;8.480;2023-03-18T00:36:10;10.23;;;5.72;;
41629;SDS011;27322;49.488;8.480;2023-03-18T00:38:40;12.82;;;6.35;;
41629;SDS011;27322;49.488;8.480;2023-03-18T00:41:07;10.63;;;5.97;;
41629;SDS011;27322;49.488;8.480;2023-03-18T00:43:38;10.20;;;6.00;;
41629;SDS011;27322;49.488;8.480;2023-03-18T00:46:14;9.68;;;5.65;;
41629;SDS011;27322;49.488;8.480;2023-03-18T00:48:41;10.63;;;6.43;;
41629;SDS011;27322;49.488;8.480;2023-03-18T00:51:07;9.38;;;5.72;;
41629;SDS011;27322;49.488;8.480;2023-03-18T00:53:37;8.98;;;5.80;;
41629;SDS011;27322;49.488;8.480;2023-03-18T00:56:14;10.10;;;5.30;;
41629;SDS011;27322;49.488;8.480;2023-03-18T00:58:42;11.57;;;5.57;;
41629;SDS011;27322;49.488;8.480;2023-03-18T01:01:07;11.77;;;5.43;;
41629;SDS011;27322;49.488;8.480;2023-03-18T01:03:34;11.18;;;5.80;;
41629;SDS011;27322;49.488;8.480;2023-03-18T01:06:00;10.43;;;5.57;;
41629;SDS011;27322;49.488;8.480;2023-03-18T01:08:28;10.55;;;5.25;;
41629;SDS011;27322;49.488;8.480;2023-03-18T01:10:54;8.25;;;4.55;;
41629;SDS011;27322;49.488;8.480;2023-03-18T01:13:20;10.35;;;5.60;;
41629;SDS011;27322;49.488;8.480;2023-03-18T01:15:47;9.48;;;5.40;;
41629;SDS011;27322;49.488;8.480;2023-03-18T01:18:14;9.63;;;5.40;;
41629;SDS011;27322;49.488;8.480;2023-03-18T01:20:40;10.00;;;5.72;;
41629;SDS011;27322;49.488;8.480;2023-03-18T01:23:08;10.60;;;6.30;;
41629;SDS011;27322;49.488;8.480;2023-03-18T01:25:35;11.30;;;5.75;;
41629;SDS011;27322;49.488;8.480;2023-03-18T01:28:01;11.55;;;6.20;;
41629;SDS011;27322;49.488;8.480;2023-03-18T01:30:27;10.43;;;5.90;;
41629;SDS011;27322;49.488;8.480;2023-03-18T01:32:54;9.30;;;6.10;;
41629;SDS011;27322;49.488;8.480;2023-03-18T01:35:20;9.48;;;5.57;;
41629;SDS011;27322;49.488;8.480;2023-03-18T01:37:47;12.50;;;6.10;;
41629;SDS011;27322;49.488;8.480;2023-03-18T01:40:13;8.80;;;5.28;;
41629;SDS011;27322;49.488;8.480;2023-03-18T01:42:40;10.90;;;5.70;;
41629;SDS011;27322;49.488;8.480;2023-03-18T01:45:15;10.70;;;5.80;;
41629;SDS011;27322;49.488;8.480;2023-03-18T01:48:00;8.80;;;5.68;;
41629;SDS011;27322;49.488;8.480;2023-03-18T01:50:33;10.75;;;5.85;;
41629;SDS011;27322;49.488;8.480;2023-03-18T01:53:03;9.93;;;5.60;;
41629;SDS011;27322;49.488;8.480;2023-03-18T01:55:34;11.13;;;5.78;;
41629;SDS011;27322;49.488;8.480;2023-03-18T01:58:03;9.45;;;5.82;;
41629;SDS011;27322;49.488;8.480;2023-03-18T02:01:06;11.20;;;5.75;;
41629;SDS011;27322;49.488;8.480;2023-03-18T02:03:41;8.82;;;5.30;;
41629;SDS011;27322;49.488;8.480;2023-03-18T02:06:08;9.38;;;5.60;;
41629;SDS011;27322;49.488;8.480;2023-03-18T02:08:35;11.63;;;5.78;;
41629;SDS011;27322;49.488;8.480;2023-03-18T02:11:02;10.80;;;5.60;;
41629;SDS011;27322;49.488;8.480;2023-03-18T02:13:28;10.90;;;6.00;;
41629;SDS011;27322;49.488;8.480;2023-03-18T02:15:57;12.70;;;6.25;;
41629;SDS011;27322;49.488;8.480;2023-03-18T02:18:30;10.00;;;5.95;;
41629;SDS011;27322;49.488;8.480;2023-03-18T02:31:55;14.57;;;5.95;;
41629;SDS011;27322;49.488;8.480;2023-03-18T02:34:24;10.45;;;5.72;;
41629;SDS011;27322;49.488;8.480;2023-03-18T02:36:51;7.63;;;5.10;;
41629;SDS011;27322;49.488;8.480;2023-03-18T02:39:17;12.05;;;5.90;;
41629;SDS011;27322;49.488;8.480;2023-03-18T02:41:43;9.30;;;5.70;;
41629;SDS011;27322;49.488;8.480;2023-03-18T02:44:10;10.52;;;6.30;;
41629;SDS011;27322;49.488;8.480;2023-03-18T02:49:11;12.15;;;5.93;;
41629;SDS011;27322;49.488;8.480;2023-03-18T02:51:38;10.02;;;6.03;;
41629;SDS011;27322;49.488;8.480;2023-03-18T02:54:06;10.43;;;5.90;;
41629;SDS011;27322;49.488;8.480;2023-03-18T02:56:37;12.02;;;6.40;;
41629;SDS011;27322;49.488;8.480;2023-03-18T02:59:04;11.40;;;6.82;;
41629;SDS011;27322;49.488;8.480;2023-03-18T03:01:30;11.82;;;7.28;;
41629;SDS011;27322;49.488;8.480;2023-03-18T03:03:56;10.57;;;6.80;;
41629;SDS011;27322;49.488;8.480;2023-03-18T03:06:22;12.65;;;6.47;;
41629;SDS011;27322;49.488;8.480;2023-03-18T03:08:49;10.77;;;6.03;;
41629;SDS011;27322;49.488;8.480;2023-03-18T03:11:15;11.18;;;6.75;;
41629;SDS011;27322;49.488;8.480;2023-03-18T03:13:41;10.88;;;6.05;;
41629;SDS011;27322;49.488;8.480;2023-03-18T03:16:09;11.10;;;6.68;;
41629;SDS011;27322;49.488;8.480;2023-03-18T03:18:37;11.70;;;6.40;;
41629;SDS011;27322;49.488;8.480;2023-03-18T03:21:02;14.00;;;6.75;;
41629;SDS011;27322;49.488;8.480;2023-03-18T03:23:29;10.60;;;6.70;;
41629;SDS011;27322;49.488;8.480;2023-03-18T03:25:55;12.50;;;6.80;;
41629;SDS011;27322;49.488;8.480;2023-03-18T03:28:21;13.45;;;7.30;;
41629;SDS011;27322;49.488;8.480;2023-03-18T03:30:47;11.23;;;7.03;;
41629;SDS011;27322;49.488;8.480;2023-03-18T03:33:13;11.30;;;6.47;;
41629;SDS011;27322;49.488;8.480;2023-03-18T03:35:39;9.77;;;6.40;;
41629;SDS011;27322;49.488;8.480;2023-03-18T03:38:06;11.38;;;6.80;;
41629;SDS011;27322;49.488;8.480;2023-03-18T03:40:32;10.45;;;5.80;;
41629;SDS011;27322;49.488;8.480;2023-03-18T03:42:57;10.65;;;6.03;;
41629;SDS011;27322;49.488;8.480;2023-03-18T03:45:23;10.23;;;6.32;;
41629;SDS011;27322;49.488;8.480;2023-03-18T03:47:49;9.85;;;5.88;;
41629;SDS011;27322;49.488;8.480;2023-03-18T03:50:15;11.75;;;5.78;;
41629;SDS011;27322;49.488;8.480;2023-03-18T03:52:42;9.30;;;5.60;;
41629;SDS011;27322;49.488;8.480;2023-03-18T03:55:09;10.82;;;6.15;;
41629;SDS011;27322;49.488;8.480;2023-03-18T03:57:36;11.65;;;5.80;;
41629;SDS011;27322;49.488;8.480;2023-03-18T04:00:06;11.63;;;6.15;;
41629;SDS011;27322;49.488;8.480;2023-03-18T04:02:37;10.43;;;5.88;;
41629;SDS011;27322;49.488;8.480;2023-03-18T04:05:04;10.88;;;5.95;;
41629;SDS011;27322;49.488;8.480;2023-03-18T04:07:30;10.52;;;5.90;;
41629;SDS011;27322;49.488;8.480;2023-03-18T04:09:56;10.35;;;5.80;;
41629;SDS011;27322;49.488;8.480;2023-03-18T04:12:21;10.13;;;5.75;;
41629;SDS011;27322;49.488;8.480;2023-03-18T04:14:47;9.82;;;5.93;;
41629;SDS011;27322;49.488;8.480;2023-03-18T04:17:13;10.43;;;5.78;;
41629;SDS011;27322;49.488;8.480;2023-03-18T04:19:39;10.07;;;5.13;;
41629;SDS011;27322;49.488;8.480;2023-03-18T04:22:05;9.10;;;5.28;;
41629;SDS011;27322;49.488;8.480;2023-03-18T04:24:31;11.18;;;5.70;;
41629;SDS011;27322;49.488;8.480;2023-03-18T04:26:57;10.85;;;5.35;;
41629;SDS011;27322;49.488;8.480;2023-03-18T04:29:23;8.90;;;4.90;;
41629;SDS011;27322;49.488;8.480;2023-03-18T04:31:49;10.65;;;5.53;;
41629;SDS011;27322;49.488;8.480;2023-03-18T04:34:14;10.68;;;5.32;;
41629;SDS011;27322;49.488;8.480;2023-03-18T04:36:40;9.40;;;5.03;;
41629;SDS011;27322;49.488;8.480;2023-03-18T04:39:06;10.85;;;5.05;;
41629;SDS011;27322;49.488;8.480;2023-03-18T04:41:33;9.93;;;5.10;;
41629;SDS011;27322;49.488;8.480;2023-03-18T04:44:00;9.23;;;4.60;;
41629;SDS011;27322;49.488;8.480;2023-03-18T04:46:26;8.88;;;4.63;;
41629;SDS011;27322;49.488;8.480;2023-03-18T04:48:54;9.88;;;4.47;;
41629;SDS011;27322;49.488;8.480;2023-03-18T04:51:20;7.28;;;4.00;;
41629;SDS011;27322;49.488;8.480;2023-03-18T04:53:46;9.85;;;4.05;;
41629;SDS011;27322;49.488;8.480;2023-03-18T04:56:12;7.18;;;4.30;;
41629;SDS011;27322;49.488;8.480;2023-03-18T04:58:38;8.68;;;4.57;;
41629;SDS011;27322;49.488;8.480;2023-03-18T05:01:03;8.90;;;4.47;;
41629;SDS011;27322;49.488;8.480;2023-03-18T05:03:29;8.27;;;3.83;;
41629;SDS011;27322;49.488;8.480;2023-03-18T05:05:55;7.22;;;3.75;;
41629;SDS011;27322;49.488;8.480;2023-03-18T05:08:21;8.82;;;3.72;;
41629;SDS011;27322;49.488;8.480;2023-03-18T05:10:48;8.45;;;4.43;;
41629;SDS011;27322;49.488;8.480;2023-03-18T05:13:14;8.63;;;4.22;;
41629;SDS011;27322;49.488;8.480;2023-03-18T05:15:40;10.57;;;4.55;;
41629;SDS011;27322;49.488;8.480;2023-03-18T05:18:06;7.78;;;4.07;;
41629;SDS011;27322;49.488;8.480;2023-03-18T05:20:32;8.50;;;3.95;;
41629;SDS011;27322;49.488;8.480;2023-03-18T05:22:58;7.22;;;3.70;;
41629;SDS011;27322;49.488;8.480;2023-03-18T05:25:24;9.90;;;4.20;;
41629;SDS011;27322;49.488;8.480;2023-03-18T05:27:50;8.57;;;3.97;;
41629;SDS011;27322;49.488;8.480;2023-03-18T05:30:16;8.55;;;4.65;;
41629;SDS011;27322;49.488;8.480;2023-03-18T05:32:43;9.18;;;4.65;;
41629;SDS011;27322;49.488;8.480;2023-03-18T05:35:09;7.95;;;4.25;;
41629;SDS011;27322;49.488;8.480;2023-03-18T05:37:35;8.02;;;4.40;;
41629;SDS011;27322;49.488;8.480;2023-03-18T05:40:01;7.43;;;3.97;;
41629;SDS011;27322;49.488;8.480;2023-03-18T05:42:28;10.13;;;4.40;;
41629;SDS011;27322;49.488;8.480;2023-03-18T05:44:54;10.98;;;5.03;;
41629;SDS011;27322;49.488;8.480;2023-03-18T05:47:20;8.50;;;4.78;;
41629;SDS011;27322;49.488;8.480;2023-03-18T05:49:46;8.63;;;4.20;;
41629;SDS011;27322;49.488;8.480;2023-03-18T05:52:12;7.68;;;4.38;;
41629;SDS011;27322;49.488;8.480;2023-03-18T05:54:38;7.78;;;3.90;;
41629;SDS011;27322;49.488;8.480;2023-03-18T05:57:03;8.27;;;4.03;;
41629;SDS011;27322;49.488;8.480;2023-03-18T05:59:29;8.73;;;3.78;;
41629;SDS011;27322;49.488;8.480;2023-03-18T06:01:55;6.82;;;3.10;;
41629;SDS011;27322;49.488;8.480;2023-03-18T06:04:21;8.73;;;3.95;;
41629;SDS011;27322;49.488;8.480;2023-03-18T06:06:46;7.13;;;3.47;;
41629;SDS011;27322;49.488;8.480;2023-03-18T06:09:13;8.00;;;3.53;;
41629;SDS011;27322;49.488;8.480;2023-03-18T06:11:39;8.27;;;3.85;;
41629;SDS011;27322;49.488;8.480;2023-03-18T06:14:06;8.70;;;3.55;;
41629;SDS011;27322;49.488;8.480;2023-03-18T06:16:32;7.50;;;3.40;;
41629;SDS011;27322;49.488;8.480;2023-03-18T06:19:02;9.75;;;3.67;;
41629;SDS011;27322;49.488;8.480;2023-03-18T06:21:28;6.65;;;3.35;;
41629;SDS011;27322;49.488;8.480;2023-03-18T06:23:55;5.57;;;3.28;;
41629;SDS011;27322;49.488;8.480;2023-03-18T06:26:21;6.43;;;3.38;;
41629;SDS011;27322;49.488;8.480;2023-03-18T06:28:47;7.55;;;3.88;;
41629;SDS011;27322;49.488;8.480;2023-03-18T06:31:12;7.90;;;3.67;;
41629;SDS011;27322;49.488;8.480;2023-03-18T06:33:38;6.15;;;3.22;;
41629;SDS011;27322;49.488;8.480;2023-03-18T06:36:04;8.15;;;3.10;;
41629;SDS011;27322;49.488;8.480;2023-03-18T06:38:30;7.40;;;3.30;;
41629;SDS011;27322;49.488;8.480;2023-03-18T06:40:56;6.25;;;3.60;;
41629;SDS011;27322;49.488;8.480;2023-03-18T06:43:22;7.47;;;3.63;;
41629;SDS011;27322;49.488;8.480;2023-03-18T06:45:48;9.05;;;3.72;;
41629;SDS011;27322;49.488;8.480;2023-03-18T06:48:14;7.20;;;3.45;;
41629;SDS011;27322;49.488;8.480;2023-03-18T06:50:41;6.57;;;3.53;;
41629;SDS011;27322;49.488;8.480;2023-03-18T06:53:08;9.38;;;3.60;;
41629;SDS011;27322;49.488;8.480;2023-03-18T06:55:34;8.30;;;3.78;;
41629;SDS011;27322;49.488;8.480;2023-03-18T06:58:00;7.95;;;3.72;;
41629;SDS011;27322;49.488;8.480;2023-03-18T07:00:26;7.43;;;3.47;;
41629;SDS011;27322;49.488;8.480;2023-03-18T07:02:52;6.60;;;3.45;;
41629;SDS011;27322;49.488;8.480;2023-03-18T07:05:18;5.75;;;2.50;;
41629;SDS011;27322;49.488;8.480;2023-03-18T07:07:44;6.40;;;2.55;;
41629;SDS011;27322;49.488;8.480;2023-03-18T07:10:21;6.82;;;2.80;;
41629;SDS011;27322;49.488;8.480;2023-03-18T07:12:49;4.85;;;2.38;;
41629;SDS011;27322;49.488;8.480;2023-03-18T07:15:16;5.13;;;2.35;;
41629;SDS011;27322;49.488;8.480;2023-03-18T07:17:45;5.53;;;2.30;;
41629;SDS011;27322;49.488;8.480;2023-03-18T07:20:11;6.95;;;3.05;;
41629;SDS011;27322;49.488;8.480;2023-03-18T07:22:39;7.70;;;3.83;;
41629;SDS011;27322;49.488;8.480;2023-03-18T07:25:06;7.18;;;3.10;;
41629;SDS011;27322;49.488;8.480;2023-03-18T07:27:32;6.07;;;2.38;;
41629;SDS011;27322;49.488;8.480;2023-03-18T07:29:58;6.20;;;2.58;;
41629;SDS011;27322;49.488;8.480;2023-03-18T07:32:24;5.63;;;2.17;;
41629;SDS011;27322;49.488;8.480;2023-03-18T07:34:50;5.38;;;2.08;;
41629;SDS011;27322;49.488;8.480;2023-03-18T07:37:16;4.80;;;2.30;;
41629;SDS011;27322;49.488;8.480;2023-03-18T07:39:41;5.38;;;2.55;;
41629;SDS011;27322;49.488;8.480;2023-03-18T07:42:08;8.55;;;2.53;;
41629;SDS011;27322;49.488;8.480;2023-03-18T07:44:34;5.43;;;2.15;;
41629;SDS011;27322;49.488;8.480;2023-03-18T07:47:01;5.55;;;2.25;;
41629;SDS011;27322;49.488;8.480;2023-03-18T07:49:27;6.00;;;1.90;;
41629;SDS011;27322;49.488;8.480;2023-03-18T07:51:53;4.13;;;1.58;;
41629;SDS011;27322;49.488;8.480;2023-03-18T07:54:19;5.30;;;2.10;;
41629;SDS011;27322;49.488;8.480;2023-03-18T07:56:45;5.28;;;2.08;;
41629;SDS011;27322;49.488;8.480;2023-03-18T07:59:11;4.65;;;2.00;;
41629;SDS011;27322;49.488;8.480;2023-03-18T08:01:36;4.35;;;1.75;;
41629;SDS011;27322;49.488;8.480;2023-03-18T08:04:03;4.60;;;1.63;;
41629;SDS011;27322;49.488;8.480;2023-03-18T08:06:30;4.53;;;1.70;;
41629;SDS011;27322;49.488;8.480;2023-03-18T08:08:56;3.45;;;1.40;;
41629;SDS011;27322;49.488;8.480;2023-03-18T08:11:22;5.78;;;2.45;;
41629;SDS011;27322;49.488;8.480;2023-03-18T08:13:48;4.38;;;1.80;;
41629;SDS011;27322;49.488;8.480;2023-03-18T08:16:14;4.80;;;1.50;;
41629;SDS011;27322;49.488;8.480;2023-03-18T08:18:40;4.88;;;1.63;;
41629;SDS011;27322;49.488;8.480;2023-03-18T08:21:06;3.97;;;1.20;;
41629;SDS011;27322;49.488;8.480;2023-03-18T08:23:31;5.18;;;1.35;;
41629;SDS011;27322;49.488;8.480;2023-03-18T08:25:57;4.78;;;1.50;;
41629;SDS011;27322;49.488;8.480;2023-03-18T08:28:23;5.90;;;1.45;;
41629;SDS011;27322;49.488;8.480;2023-03-18T08:30:53;4.97;;;1.33;;
41629;SDS011;27322;49.488;8.480;2023-03-18T08:33:19;3.05;;;1.20;;
41629;SDS011;27322;49.488;8.480;2023-03-18T08:35:46;3.65;;;1.30;;
41629;SDS011;27322;49.488;8.480;2023-03-18T08:38:12;4.72;;;1.25;;
41629;SDS011;27322;49.488;8.480;2023-03-18T08:40:39;4.35;;;1.13;;
41629;SDS011;27322;49.488;8.480;2023-03-18T08:43:05;3.25;;;1.15;;
41629;SDS011;27322;49.488;8.480;2023-03-18T08:45:31;4.75;;;1.30;;
41629;SDS011;27322;49.488;8.480;2023-03-18T08:47:57;3.58;;;1.23;;
41629;SDS011;27322;49.488;8.480;2023-03-18T08:50:23;4.22;;;1.58;;
41629;SDS011;27322;49.488;8.480;2023-03-18T08:52:52;4.40;;;1.50;;
41629;SDS011;27322;49.488;8.480;2023-03-18T08:55:20;4.22;;;1.30;;
41629;SDS011;27322;49.488;8.480;2023-03-18T08:57:47;3.30;;;1.10;;
41629;SDS011;27322;49.488;8.480;2023-03-18T09:00:14;3.80;;;1.50;;
41629;SDS011;27322;49.488;8.480;2023-03-18T09:02:40;5.63;;;1.30;;
41629;SDS011;27322;49.488;8.480;2023-03-18T09:05:05;6.40;;;1.70;;
41629;SDS011;27322;49.488;8.480;2023-03-18T09:07:31;4.10;;;1.38;;
41629;SDS011;27322;49.488;8.480;2023-03-18T09:09:57;3.95;;;1.30;;
41629;SDS011;27322;49.488;8.480;2023-03-18T09:12:23;5.13;;;1.60;;
41629;SDS011;27322;49.488;8.480;2023-03-18T09:14:48;3.38;;;1.20;;
41629;SDS011;27322;49.488;8.480;2023-03-18T09:17:14;3.90;;;1.50;;
41629;SDS011;27322;49.488;8.480;2023-03-18T09:19:40;3.30;;;1.25;;
41629;SDS011;27322;49.488;8.480;2023-03-18T09:22:05;5.60;;;1.40;;
41629;SDS011;27322;49.488;8.480;2023-03-18T09:24:31;3.80;;;1.30;;
41629;SDS011;27322;49.488;8.480;2023-03-18T09:26:56;3.97;;;1.48;;
41629;SDS011;27322;49.488;8.480;2023-03-18T09:29:23;3.55;;;1.30;;
41629;SDS011;27322;49.488;8.480;2023-03-18T09:31:49;6.93;;;1.50;;
41629;SDS011;27322;49.488;8.480;2023-03-18T09:34:16;5.35;;;1.55;;
41629;SDS011;27322;49.488;8.480;2023-03-18T09:36:41;4.90;;;1.40;;
41629;SDS011;27322;49.488;8.480;2023-03-18T09:39:14;4.88;;;1.33;;
41629;SDS011;27322;49.488;8.480;2023-03-18T09:44:41;4.70;;;1.35;;
41629;SDS011;27322;49.488;8.480;2023-03-18T09:52:42;5.35;;;1.50;;
41629;SDS011;27322;49.488;8.480;2023-03-18T09:57:48;4.10;;;1.30;;
41629;SDS011;27322;49.488;8.480;2023-03-18T10:00:26;2.85;;;1.20;;
41629;SDS011;27322;49.488;8.480;2023-03-18T10:03:05;4.00;;;1.08;;
41629;SDS011;27322;49.488;8.480;2023-03-18T10:05:43;4.97;;;1.20;;
41629;SDS011;27322;49.488;8.480;2023-03-18T10:08:17;4.97;;;1.10;;
41629;SDS011;27322;49.488;8.480;2023-03-18T10:11:05;4.53;;;0.90;;
41629;SDS011;27322;49.488;8.480;2023-03-18T10:13:57;7.05;;;0.90;;
41629;SDS011;27322;49.488;8.480;2023-03-18T10:17:05;4.50;;;1.10;;
41629;SDS011;27322;49.488;8.480;2023-03-18T10:19:49;3.08;;;1.10;;
41629;SDS011;27322;49.488;8.480;2023-03-18T10:22:22;2.63;;;0.90;;
41629;SDS011;27322;49.488;8.480;2023-03-18T10:30:30;4.50;;;1.10;;
41629;SDS011;27322;49.488;8.480;2023-03-18T10:35:42;3.85;;;0.90;;
41629;SDS011;27322;49.488;8.480;2023-03-18T10:40:42;5.32;;;1.10;;
41629;SDS011;27322;49.488;8.480;2023-03-18T10:43:14;3.65;;;0.90;;
41629;SDS011;27322;49.488;8.480;2023-03-18T10:48:21;3.45;;;0.82;;
41629;SDS011;27322;49.488;8.480;2023-03-18T10:58:30;5.13;;;1.10;;
41629;SDS011;27322;49.488;8.480;2023-03-18T11:00:57;3.55;;;0.77;;
41629;SDS011;27322;49.488;8.480;2023-03-18T11:03:25;2.00;;;0.60;;
41629;SDS011;27322;49.488;8.480;2023-03-18T11:05:53;2.85;;;0.75;;
41629;SDS011;27322;49.488;8.480;2023-03-18T11:08:34;2.10;;;0.77;;
41629;SDS011;27322;49.488;8.480;2023-03-18T11:11:14;2.72;;;0.90;;
41629;SDS011;27322;49.488;8.480;2023-03-18T11:13:51;4.82;;;1.05;;
41629;SDS011;27322;49.488;8.480;2023-03-18T11:16:39;2.13;;;0.75;;
41629;SDS011;27322;49.488;8.480;2023-03-18T11:24:34;2.75;;;0.80;;
41629;SDS011;27322;49.488;8.480;2023-03-18T11:27:03;3.35;;;0.80;;
41629;SDS011;27322;49.488;8.480;2023-03-18T11:29:58;3.55;;;0.70;;
41629;SDS011;27322;49.488;8.480;2023-03-18T11:35:01;1.90;;;0.70;;
41629;SDS011;27322;49.488;8.480;2023-03-18T11:37:39;2.83;;;0.70;;
41629;SDS011;27322;49.488;8.480;2023-03-18T11:42:31;4.18;;;1.00;;
41629;SDS011;27322;49.488;8.480;2023-03-18T11:44:58;4.00;;;0.80;;
41629;SDS011;27322;49.488;8.480;2023-03-18T11:47:27;4.93;;;0.88;;
41629;SDS011;27322;49.488;8.480;2023-03-18T11:49:56;4.72;;;0.85;;
41629;SDS011;27322;49.488;8.480;2023-03-18T11:52:32;3.50;;;0.75;;
41629;SDS011;27322;49.488;8.480;2023-03-18T12:00:53;2.13;;;0.70;;
41629;SDS011;27322;49.488;8.480;2023-03-18T12:06:18;2.70;;;0.80;;
41629;SDS011;27322;49.488;8.480;2023-03-18T12:11:18;3.33;;;0.90;;
41629;SDS011;27322;49.488;8.480;2023-03-18T12:14:02;3.00;;;0.90;;
41629;SDS011;27322;49.488;8.480;2023-03-18T12:16:44;2.92;;;0.80;;
41629;SDS011;27322;49.488;8.480;2023-03-18T12:46:29;2.40;;;0.70;;
41629;SDS011;27322;49.488;8.480;2023-03-18T12:54:23;2.35;;;0.70;;
41629;SDS011;27322;49.488;8.480;2023-03-18T12:56:57;3.38;;;0.80;;
41629;SDS011;27322;49.488;8.480;2023-03-18T12:59:37;2.97;;;0.70;;
41629;SDS011;27322;49.488;8.480;2023-03-18T13:05:18;2.10;;;0.85;;
41629;SDS011;27322;49.488;8.480;2023-03-18T13:10:49;3.63;;;0.85;;
41629;SDS011;27322;49.488;8.480;2023-03-18T13:13:23;2.85;;;0.73;;
41629;SDS011;27322;49.488;8.480;2023-03-18T13:15:51;3.97;;;0.80;;
41629;SDS011;27322;49.488;8.480;2023-03-18T13:20:47;3.75;;;0.85;;
41629;SDS011;27322;49.488;8.480;2023-03-18T13:26:18;3.17;;;0.80;;
41629;SDS011;27322;49.488;8.480;2023-03-18T13:31:53;3.60;;;1.10;;
41629;SDS011;27322;49.488;8.480;2023-03-18T13:40:23;4.95;;;0.90;;
41629;SDS011;27322;49.488;8.480;2023-03-18T13:43:12;2.30;;;0.73;;
41629;SDS011;27322;49.488;8.480;2023-03-18T13:45:47;3.10;;;0.80;;
41629;SDS011;27322;49.488;8.480;2023-03-18T13:48:16;3.55;;;0.90;;
41629;SDS011;27322;49.488;8.480;2023-03-18T13:50:51;3.17;;;0.85;;
41629;SDS011;27322;49.488;8.480;2023-03-18T14:00:43;3.47;;;1.00;;
41629;SDS011;27322;49.488;8.480;2023-03-18T14:13:53;2.33;;;0.70;;
41629;SDS011;27322;49.488;8.480;2023-03-18T14:16:23;3.97;;;0.88;;
41629;SDS011;27322;49.488;8.480;2023-03-18T14:19:01;2.58;;;0.70;;
41629;SDS011;27322;49.488;8.480;2023-03-18T14:21:43;1.60;;;0.80;;
41629;SDS011;27322;49.488;8.480;2023-03-18T14:26:41;3.15;;;0.95;;
41629;SDS011;27322;49.488;8.480;2023-03-18T14:29:27;2.92;;;0.80;;
41629;SDS011;27322;49.488;8.480;2023-03-18T14:32:02;4.85;;;0.80;;
41629;SDS011;27322;49.488;8.480;2023-03-18T14:34:55;3.08;;;1.00;;
41629;SDS011;27322;49.488;8.480;2023-03-18T14:42:34;3.38;;;0.75;;
41629;SDS011;27322;49.488;8.480;2023-03-18T14:47:53;4.28;;;0.77;;
41629;SDS011;27322;49.488;8.480;2023-03-18T14:50:27;2.30;;;0.70;;
41629;SDS011;27322;49.488;8.480;2023-03-18T14:55:36;3.28;;;0.80;;
41629;SDS011;27322;49.488;8.480;2023-03-18T14:58:03;2.50;;;0.65;;
41629;SDS011;27322;49.488;8.480;2023-03-18T15:00:29;3.05;;;1.05;;
41629;SDS011;27322;49.488;8.480;2023-03-18T15:03:05;3.67;;;1.00;;
41629;SDS011;27322;49.488;8.480;2023-03-18T15:05:35;3.47;;;0.90;;
41629;SDS011;27322;49.488;8.480;2023-03-18T15:08:06;2.80;;;0.93;;
41629;SDS011;27322;49.488;8.480;2023-03-18T15:10:36;2.22;;;0.80;;
41629;SDS011;27322;49.488;8.480;2023-03-18T15:13:06;4.18;;;0.80;;
41629;SDS011;27322;49.488;8.480;2023-03-18T15:15:38;2.78;;;1.00;;
41629;SDS011;27322;49.488;8.480;2023-03-18T15:23:37;6.80;;;1.10;;
41629;SDS011;27322;49.488;8.480;2023-03-18T15:26:06;3.50;;;0.80;;
41629;SDS011;27322;49.488;8.480;2023-03-18T15:28:38;3.28;;;0.80;;
41629;SDS011;27322;49.488;8.480;2023-03-18T15:31:04;2.88;;;0.80;;
41629;SDS011;27322;49.488;8.480;2023-03-18T15:33:36;2.35;;;0.75;;
41629;SDS011;27322;49.488;8.480;2023-03-18T15:36:03;3.58;;;0.80;;
41629;SDS011;27322;49.488;8.480;2023-03-18T15:38:31;3.70;;;0.70;;
41629;SDS011;27322;49.488;8.480;2023-03-18T15:41:05;3.10;;;0.80;;
41629;SDS011;27322;49.488;8.480;2023-03-18T15:46:17;2.38;;;0.65;;
41629;SDS011;27322;49.488;8.480;2023-03-18T15:48:52;3.85;;;0.90;;
41629;SDS011;27322;49.488;8.480;2023-03-18T15:51:29;3.17;;;0.70;;
41629;SDS011;27322;49.488;8.480;2023-03-18T15:54:02;2.60;;;0.70;;
41629;SDS011;27322;49.488;8.480;2023-03-18T15:56:31;2.30;;;0.70;;
41629;SDS011;27322;49.488;8.480;2023-03-18T16:01:47;4.20;;;0.80;;
41629;SDS011;27322;49.488;8.480;2023-03-18T16:04:16;2.35;;;0.93;;
41629;SDS011;27322;49.488;8.480;2023-03-18T16:06:42;2.38;;;0.80;;
41629;SDS011;27322;49.488;8.480;2023-03-18T16:09:15;3.40;;;0.90;;
41629;SDS011;27322;49.488;8.480;2023-03-18T16:11:43;1.80;;;0.70;;
41629;SDS011;27322;49.488;8.480;2023-03-18T16:16:44;2.17;;;0.65;;
41629;SDS011;27322;49.488;8.480;2023-03-18T16:19:14;2.70;;;0.90;;
41629;SDS011;27322;49.488;8.480;2023-03-18T16:21:49;3.15;;;0.90;;
41629;SDS011;27322;49.488;8.480;2023-03-18T16:24:15;2.28;;;0.70;;
41629;SDS011;27322;49.488;8.480;2023-03-18T16:26:41;3.15;;;0.90;;
41629;SDS011;27322;49.488;8.480;2023-03-18T16:29:26;3.33;;;0.90;;
41629;SDS011;27322;49.488;8.480;2023-03-18T16:31:55;2.83;;;0.80;;
41629;SDS011;27322;49.488;8.480;2023-03-18T16:34:21;1.92;;;0.70;;
41629;SDS011;27322;49.488;8.480;2023-03-18T16:36:47;2.03;;;0.77;;
41629;SDS011;27322;49.488;8.480;2023-03-18T16:41:48;4.03;;;0.90;;
41629;SDS011;27322;49.488;8.480;2023-03-18T16:44:15;2.88;;;0.70;;
41629;SDS011;27322;49.488;8.480;2023-03-18T16:46:46;2.92;;;0.75;;
41629;SDS011;27322;49.488;8.480;2023-03-18T16:49:19;2.13;;;0.77;;
41629;SDS011;27322;49.488;8.480;2023-03-18T16:52:04;3.45;;;1.00;;
41629;SDS011;27322;49.488;8.480;2023-03-18T16:54:31;3.67;;;1.00;;
41629;SDS011;27322;49.488;8.480;2023-03-18T16:56:58;4.18;;;1.15;;
41629;SDS011;27322;49.488;8.480;2023-03-18T16:59:30;2.05;;;0.85;;
41629;SDS011;27322;49.488;8.480;2023-03-18T17:01:59;3.35;;;0.90;;
41629;SDS011;27322;49.488;8.480;2023-03-18T17:04:30;2.17;;;0.80;;
41629;SDS011;27322;49.488;8.480;2023-03-18T17:07:00;3.88;;;0.98;;
41629;SDS011;27322;49.488;8.480;2023-03-18T17:09:28;2.10;;;0.80;;
41629;SDS011;27322;49.488;8.480;2023-03-18T17:11:56;3.13;;;0.80;;
41629;SDS011;27322;49.488;8.480;2023-03-18T17:17:00;2.95;;;0.85;;
41629;SDS011;27322;49.488;8.480;2023-03-18T17:19:28;2.30;;;0.90;;
41629;SDS011;27322;49.488;8.480;2023-03-18T17:21:53;3.40;;;0.90;;
41629;SDS011;27322;49.488;8.480;2023-03-18T17:24:19;3.25;;;0.90;;
41629;SDS011;27322;49.488;8.480;2023-03-18T17:26:46;2.60;;;0.77;;
41629;SDS011;27322;49.488;8.480;2023-03-18T17:29:35;2.67;;;0.90;;
41629;SDS011;27322;49.488;8.480;2023-03-18T17:31:59;2.63;;;0.85;;
41629;SDS011;27322;49.488;8.480;2023-03-18T17:34:25;3.92;;;0.95;;
41629;SDS011;27322;49.488;8.480;2023-03-18T17:36:51;2.25;;;0.90;;
41629;SDS011;27322;49.488;8.480;2023-03-18T17:39:17;3.60;;;0.80;;
41629;SDS011;27322;49.488;8.480;2023-03-18T17:41:42;2.15;;;0.75;;
41629;SDS011;27322;49.488;8.480;2023-03-18T17:44:21;2.42;;;0.90;;
41629;SDS011;27322;49.488;8.480;2023-03-18T17:46:48;4.43;;;1.25;;